createdAt,value
2022-10-05T00:00:15.578Z,14.03
2022-10-05T00:02:42.001Z,14.15
2022-10-05T00:05:23.710Z,14.20
2022-10-05T00:07:51.728Z,14.16
2022-10-05T00:10:19.455Z,14.14
2022-10-05T00:12:47.607Z,14.09
2022-10-05T00:15:17.992Z,14.08
2022-10-05T00:17:44.330Z,14.12
2022-10-05T00:20:26.072Z,13.92
2022-10-05T00:22:57.877Z,13.96
2022-10-05T00:25:24.559Z,14.02
2022-10-05T00:27:56.730Z,13.99
2022-10-05T00:30:24.930Z,14.05
2022-10-05T00:32:54.869Z,13.84
2022-10-05T00:35:23.736Z,13.87
2022-10-05T00:37:55.071Z,13.97
2022-10-05T00:40:40.314Z,13.91
2022-10-05T00:43:37.333Z,13.93
2022-10-05T00:46:20.201Z,13.90
2022-10-05T00:49:29.077Z,13.84
2022-10-05T00:52:32.249Z,13.88
2022-10-05T00:55:26.232Z,13.73
2022-10-05T00:58:14.023Z,13.75
2022-10-05T01:01:18.018Z,13.83
2022-10-05T01:04:11.881Z,13.71
2022-10-05T01:07:07.516Z,13.69
2022-10-05T01:09:41.399Z,13.78
2022-10-05T01:12:27.482Z,13.84
2022-10-05T01:15:08.968Z,13.58
2022-10-05T01:17:50.020Z,13.58
2022-10-05T01:20:29.782Z,13.37
2022-10-05T01:23:47.155Z,13.01
2022-10-05T01:26:47.343Z,12.54
2022-10-05T01:29:24.874Z,12.69
2022-10-05T01:32:19.310Z,12.68
2022-10-05T01:35:27.671Z,13.01
2022-10-05T01:38:16.101Z,13.14
2022-10-05T01:41:16.479Z,13.14
2022-10-05T01:44:15.451Z,13.03
2022-10-05T01:47:05.578Z,12.91
2022-10-05T01:50:02.480Z,13.02
2022-10-05T01:52:49.363Z,13.07
2022-10-05T01:55:32.393Z,13.09
2022-10-05T01:58:19.869Z,12.91
2022-10-05T02:00:58.374Z,13.04
2022-10-05T02:03:30.686Z,13.04
2022-10-05T02:06:01.646Z,12.93
2022-10-05T02:08:39.635Z,12.99
2022-10-05T02:11:08.674Z,12.94
2022-10-05T02:13:40.425Z,13.02
2022-10-05T02:16:16.949Z,13.08
2022-10-05T02:18:59.143Z,12.99
2022-10-05T02:21:26.698Z,13.10
2022-10-05T02:23:57.269Z,13.09
2022-10-05T02:26:25.804Z,13.18
2022-10-05T02:28:56.417Z,13.15
2022-10-05T02:31:28.592Z,13.01
2022-10-05T02:34:22.735Z,13.08
2022-10-05T02:37:01.101Z,13.11
2022-10-05T02:39:53.777Z,12.96
2022-10-05T02:42:30.694Z,12.80
2022-10-05T02:45:02.721Z,12.81
2022-10-05T02:47:41.602Z,12.87
2022-10-05T02:50:33.573Z,12.92
2022-10-05T02:53:20.438Z,12.99
2022-10-05T02:55:46.668Z,13.10
2022-10-05T02:58:12.919Z,13.17
2022-10-05T03:00:47.853Z,13.10
2022-10-05T03:03:28.096Z,12.94
2022-10-05T03:06:00.193Z,13.00
2022-10-05T03:08:29.202Z,12.84
2022-10-05T03:11:18.292Z,12.72
2022-10-05T03:14:10.987Z,12.74
2022-10-05T03:16:56.171Z,12.62
2022-10-05T03:19:25.410Z,12.80
2022-10-05T03:22:29.279Z,12.56
2022-10-05T03:25:25.264Z,12.49
2022-10-05T03:28:10.982Z,12.65
2022-10-05T03:30:50.974Z,12.76
2022-10-05T03:33:55.973Z,12.78
2022-10-05T03:36:32.900Z,12.72
2022-10-05T03:39:11.070Z,12.75
2022-10-05T03:41:47.394Z,12.75
2022-10-05T03:44:39.492Z,12.76
2022-10-05T03:47:18.142Z,12.72
2022-10-05T03:49:53.856Z,12.77
2022-10-05T03:52:23.215Z,12.85
2022-10-05T03:54:59.902Z,12.89
2022-10-05T03:57:29.479Z,12.86
2022-10-05T03:59:55.910Z,12.76
2022-10-05T04:02:30.909Z,12.78
2022-10-05T04:05:31.732Z,12.76
2022-10-05T04:08:10.218Z,12.60
2022-10-05T04:10:50.627Z,12.61
2022-10-05T04:13:38.312Z,12.38
2022-10-05T04:16:19.338Z,12.39
2022-10-05T04:19:14.180Z,12.39
2022-10-05T04:22:11.572Z,12.36
2022-10-05T04:24:44.843Z,12.48
2022-10-05T04:27:13.446Z,12.50
2022-10-05T04:29:50.983Z,12.48
2022-10-05T04:32:49.811Z,12.45
2022-10-05T04:35:25.288Z,12.50
2022-10-05T04:38:16.806Z,12.59
2022-10-05T04:40:50.888Z,12.59
2022-10-05T04:43:19.997Z,12.66
2022-10-05T04:46:30.694Z,12.60
2022-10-05T04:49:20.962Z,12.47
2022-10-05T04:52:05.633Z,12.61
2022-10-05T04:54:56.857Z,12.71
2022-10-05T04:57:41.878Z,12.62
2022-10-05T05:00:20.324Z,12.31
2022-10-05T05:03:14.577Z,12.33
2022-10-05T05:06:16.028Z,12.44
2022-10-05T05:09:15.095Z,12.43
2022-10-05T05:11:47.476Z,12.58
2022-10-05T05:14:42.492Z,12.42
2022-10-05T05:17:25.546Z,12.46
2022-10-05T05:20:20.916Z,12.53
2022-10-05T05:22:58.838Z,12.45
2022-10-05T05:25:36.915Z,12.31
2022-10-05T05:28:28.559Z,12.36
2022-10-05T05:31:18.292Z,12.44
2022-10-05T05:33:55.142Z,12.37
2022-10-05T05:36:42.418Z,12.22
2022-10-05T05:39:14.705Z,12.15
2022-10-05T05:41:47.099Z,12.41
2022-10-05T05:44:35.283Z,12.34
2022-10-05T05:47:18.859Z,12.28
2022-10-05T05:50:06.721Z,12.45
2022-10-05T05:53:01.180Z,12.54
2022-10-05T05:55:52.484Z,12.34
2022-10-05T05:58:43.732Z,12.36
2022-10-05T06:01:32.199Z,12.32
2022-10-05T06:04:01.850Z,12.39
2022-10-05T06:06:37.907Z,12.25
2022-10-05T06:10:06.275Z,12.24
2022-10-05T06:12:41.534Z,12.25
2022-10-05T06:16:21.034Z,12.17
2022-10-05T06:19:12.330Z,12.38
2022-10-05T06:21:47.953Z,12.22
2022-10-05T06:24:20.771Z,12.38
2022-10-05T06:27:18.092Z,12.45
2022-10-05T06:30:15.125Z,12.52
2022-10-05T06:32:52.544Z,12.59
2022-10-05T06:35:45.654Z,12.68
2022-10-05T06:38:43.500Z,12.60
2022-10-05T06:41:40.446Z,12.60
2022-10-05T06:44:16.421Z,12.66
2022-10-05T06:47:00.929Z,12.67
2022-10-05T06:49:36.948Z,12.73
2022-10-05T06:52:29.929Z,12.75
2022-10-05T06:54:59.228Z,12.84
2022-10-05T06:57:52.093Z,12.54
2022-10-05T07:00:24.911Z,12.42
2022-10-05T07:02:57.809Z,12.36
2022-10-05T07:05:41.342Z,12.59
2022-10-05T07:08:13.375Z,12.75
2022-10-05T07:10:51.111Z,12.86
2022-10-05T07:13:26.956Z,12.92
2022-10-05T07:16:11.991Z,12.95
2022-10-05T07:18:59.141Z,13.02
2022-10-05T07:21:56.410Z,13.01
2022-10-05T07:24:31.592Z,13.06
2022-10-05T07:27:06.501Z,13.09
2022-10-05T07:29:43.240Z,13.10
2022-10-05T07:32:32.889Z,13.10
2022-10-05T07:35:34.874Z,13.09
2022-10-05T07:38:09.587Z,13.08
2022-10-05T07:40:44.805Z,13.14
2022-10-05T07:43:51.434Z,13.13
2022-10-05T07:46:28.246Z,13.24
2022-10-05T07:49:28.752Z,13.30
2022-10-05T07:52:18.920Z,13.22
2022-10-05T07:55:10.277Z,13.30
2022-10-05T07:57:42.971Z,13.43
2022-10-05T08:00:12.632Z,13.40
2022-10-05T08:02:48.949Z,13.61
2022-10-05T08:05:25.592Z,13.77
2022-10-05T08:08:00.422Z,13.89
2022-10-05T08:11:04.599Z,14.03
2022-10-05T08:13:48.824Z,14.19
2022-10-05T08:16:16.586Z,14.16
2022-10-05T08:18:57.380Z,14.25
2022-10-05T08:21:47.964Z,14.02
2022-10-05T08:24:38.636Z,13.96
2022-10-05T08:27:12.481Z,14.22
2022-10-05T08:29:50.002Z,14.32
2022-10-05T08:32:24.380Z,14.38
2022-10-05T08:35:01.789Z,14.54
2022-10-05T08:37:39.926Z,14.57
2022-10-05T08:40:18.595Z,14.73
2022-10-05T08:43:05.678Z,14.93
2022-10-05T08:46:01.108Z,14.53
2022-10-05T08:48:45.778Z,14.59
2022-10-05T08:51:32.206Z,14.56
2022-10-05T08:54:23.533Z,14.83
2022-10-05T08:57:10.283Z,14.72
2022-10-05T08:59:49.831Z,14.77
2022-10-05T09:02:30.918Z,14.82
2022-10-05T09:05:10.072Z,15.09
2022-10-05T09:08:03.824Z,15.28
2022-10-05T09:10:33.068Z,15.08
2022-10-05T09:13:08.466Z,15.28
2022-10-05T09:15:59.263Z,15.43
2022-10-05T09:18:40.353Z,15.70
2022-10-05T09:21:27.506Z,15.82
2022-10-05T09:24:12.347Z,16.07
2022-10-05T09:27:03.730Z,16.24
2022-10-05T09:29:52.042Z,16.34
2022-10-05T09:33:02.849Z,16.48
2022-10-05T09:35:29.682Z,16.57
2022-10-05T09:38:31.538Z,16.81
2022-10-05T09:41:25.666Z,16.92
2022-10-05T09:44:19.305Z,17.03
2022-10-05T09:47:11.726Z,17.10
2022-10-05T09:50:03.585Z,17.14
2022-10-05T09:52:53.027Z,17.25
2022-10-05T09:56:01.124Z,17.22
2022-10-05T09:58:45.758Z,16.98
2022-10-05T10:01:36.683Z,16.94
2022-10-05T10:04:26.071Z,17.06
2022-10-05T10:07:21.023Z,17.18
2022-10-05T10:10:17.906Z,17.47
2022-10-05T10:13:13.046Z,17.39
2022-10-05T10:16:09.915Z,17.24
2022-10-05T10:19:00.469Z,17.29
2022-10-05T10:21:39.728Z,17.19
2022-10-05T10:24:43.202Z,17.36
2022-10-05T10:27:34.359Z,17.56
2022-10-05T10:30:25.097Z,17.70
2022-10-05T10:33:21.075Z,18.02
2022-10-05T10:36:21.524Z,18.18
2022-10-05T10:38:58.266Z,18.17
2022-10-05T10:41:57.768Z,18.39
2022-10-05T10:44:47.994Z,18.20
2022-10-05T10:47:35.327Z,18.42
2022-10-05T10:50:11.129Z,18.50
2022-10-05T10:53:05.655Z,18.43
2022-10-05T10:55:50.689Z,18.49
2022-10-05T10:58:55.931Z,18.69
2022-10-05T11:01:25.249Z,18.82
2022-10-05T11:04:22.364Z,18.94
2022-10-05T11:07:21.309Z,18.98
2022-10-05T11:10:03.046Z,19.00
2022-10-05T11:12:57.863Z,18.99
2022-10-05T11:15:58.453Z,19.26
2022-10-05T11:18:51.321Z,19.32
2022-10-05T11:21:45.445Z,19.40
2022-10-05T11:24:23.885Z,19.61
2022-10-05T11:27:18.110Z,19.69
2022-10-05T11:30:22.913Z,19.66
2022-10-05T11:33:11.109Z,19.84
2022-10-05T11:35:55.583Z,20.04
2022-10-05T11:38:51.379Z,20.07
2022-10-05T11:41:41.133Z,20.28
2022-10-05T11:44:53.925Z,20.47
2022-10-05T11:47:28.980Z,20.56
2022-10-05T11:50:32.311Z,20.71
2022-10-05T11:53:06.069Z,20.88
2022-10-05T11:55:49.652Z,20.78
2022-10-05T11:58:23.579Z,20.77
2022-10-05T12:01:00.078Z,20.88
2022-10-05T12:03:43.750Z,21.11
2022-10-05T12:06:24.498Z,21.23
2022-10-05T12:09:23.032Z,21.00
2022-10-05T12:11:49.290Z,21.23
2022-10-05T12:14:21.990Z,21.13
2022-10-05T12:16:58.746Z,21.21
2022-10-05T12:19:57.605Z,21.36
2022-10-05T12:22:37.219Z,21.53
2022-10-05T12:25:28.969Z,21.61
2022-10-05T12:28:00.587Z,21.89
2022-10-05T12:30:57.884Z,22.46
2022-10-05T12:33:34.212Z,22.82
2022-10-05T12:36:19.280Z,22.65
2022-10-05T12:39:03.320Z,22.58
2022-10-05T12:41:45.296Z,22.81
2022-10-05T12:44:36.156Z,22.81
2022-10-05T12:47:16.691Z,22.80
2022-10-05T12:49:48.769Z,23.00
2022-10-05T12:55:14.002Z,23.37
2022-10-05T12:58:09.036Z,23.69
2022-10-05T13:00:45.714Z,23.84
2022-10-05T13:03:28.771Z,24.02
2022-10-05T13:06:04.125Z,24.00
2022-10-05T13:08:41.988Z,23.41
2022-10-05T13:11:23.681Z,23.72
2022-10-05T13:14:16.390Z,24.01
2022-10-05T13:16:59.595Z,23.75
2022-10-05T13:19:50.823Z,24.16
2022-10-05T13:22:30.874Z,24.44
2022-10-05T13:25:17.323Z,24.30
2022-10-05T13:28:12.948Z,23.62
2022-10-05T13:30:45.370Z,23.52
2022-10-05T13:33:21.377Z,23.83
2022-10-05T13:36:13.614Z,24.17
2022-10-05T13:38:55.151Z,24.36
2022-10-05T13:41:24.423Z,24.44
2022-10-05T13:44:07.469Z,24.60
2022-10-05T13:46:58.569Z,24.53
2022-10-05T13:49:37.076Z,24.12
2022-10-05T13:52:09.665Z,24.43
2022-10-05T13:55:01.566Z,24.60
2022-10-05T13:57:34.732Z,25.00
2022-10-05T14:00:13.284Z,25.20
2022-10-05T14:02:43.379Z,25.12
2022-10-05T14:05:27.382Z,24.78
2022-10-05T14:08:02.621Z,24.11
2022-10-05T14:10:43.933Z,24.21
2022-10-05T14:13:27.435Z,24.03
2022-10-05T14:16:12.962Z,23.94
2022-10-05T14:18:52.421Z,24.03
2022-10-05T14:21:24.190Z,24.31
2022-10-05T14:23:51.895Z,24.52
2022-10-05T14:26:34.913Z,24.63
2022-10-05T14:29:14.830Z,24.76
2022-10-05T14:31:57.707Z,24.96
2022-10-05T14:34:33.230Z,24.65
2022-10-05T14:37:24.968Z,24.71
2022-10-05T14:39:57.261Z,24.40
2022-10-05T14:42:26.947Z,24.20
2022-10-05T14:45:14.832Z,24.62
2022-10-05T14:48:02.052Z,25.12
2022-10-05T14:50:31.169Z,25.17
2022-10-05T14:53:16.705Z,25.06
2022-10-05T14:55:45.672Z,25.14
2022-10-05T14:58:24.133Z,25.00
2022-10-05T15:01:05.158Z,25.06
2022-10-05T15:03:50.122Z,24.89
2022-10-05T15:06:27.955Z,24.77
2022-10-05T15:09:17.635Z,24.68
2022-10-05T15:11:54.918Z,24.79
2022-10-05T15:14:29.469Z,24.44
2022-10-05T15:17:03.113Z,24.74
2022-10-05T15:19:52.640Z,24.93
2022-10-05T15:22:29.271Z,25.00
2022-10-05T15:25:26.900Z,24.91
2022-10-05T15:28:04.145Z,25.02
2022-10-05T15:30:36.130Z,25.05
2022-10-05T15:33:09.104Z,24.94
2022-10-05T15:36:01.357Z,25.40
2022-10-05T15:38:37.138Z,25.28
2022-10-05T15:41:20.026Z,25.37
2022-10-05T15:44:09.401Z,24.35
2022-10-05T15:46:44.049Z,24.27
2022-10-05T15:49:27.809Z,24.24
2022-10-05T15:52:18.077Z,24.22
2022-10-05T15:55:02.694Z,24.12
2022-10-05T15:57:48.489Z,24.25
2022-10-05T16:00:18.844Z,24.40
2022-10-05T16:02:51.894Z,24.00
2022-10-05T16:06:08.500Z,24.20
2022-10-05T16:09:01.761Z,23.90
2022-10-05T16:11:32.652Z,24.24
2022-10-05T16:14:14.491Z,24.56
2022-10-05T16:16:49.755Z,24.05
2022-10-05T16:19:35.063Z,24.37
2022-10-05T16:22:28.258Z,24.26
2022-10-05T16:25:06.448Z,24.08
2022-10-05T16:27:47.561Z,23.92
2022-10-05T16:30:20.846Z,23.95
2022-10-05T16:33:03.498Z,23.37
2022-10-05T16:36:06.348Z,23.37
2022-10-05T16:38:42.885Z,23.55
2022-10-05T16:41:17.577Z,23.63
2022-10-05T16:44:10.081Z,23.29
2022-10-05T16:47:01.236Z,23.01
2022-10-05T16:49:55.101Z,23.29
2022-10-05T16:52:23.832Z,23.34
2022-10-05T16:55:04.181Z,23.57
2022-10-05T16:57:41.268Z,23.78
2022-10-05T17:00:28.922Z,23.84
2022-10-05T17:02:55.398Z,23.95
2022-10-05T17:05:31.795Z,24.13
2022-10-05T17:08:08.690Z,24.16
2022-10-05T17:11:17.073Z,24.17
2022-10-05T17:14:21.787Z,24.12
2022-10-05T17:16:57.343Z,24.15
2022-10-05T17:19:32.057Z,24.10
2022-10-05T17:22:11.572Z,24.05
2022-10-05T17:24:54.976Z,23.97
2022-10-05T17:27:35.112Z,23.77
2022-10-05T17:30:22.027Z,23.14
2022-10-05T17:33:18.450Z,23.10
2022-10-05T17:36:01.695Z,23.19
2022-10-05T17:38:30.814Z,23.16
2022-10-05T17:41:00.170Z,23.16
2022-10-05T17:43:28.538Z,23.07
2022-10-05T17:46:09.123Z,22.97
2022-10-05T17:48:54.195Z,22.95
2022-10-05T17:51:48.257Z,22.94
2022-10-05T17:55:14.999Z,22.82
2022-10-05T17:57:41.874Z,22.48
2022-10-05T18:00:43.367Z,22.66
2022-10-05T18:03:31.769Z,22.57
2022-10-05T18:06:26.289Z,22.43
2022-10-05T18:09:22.614Z,22.41
2022-10-05T18:12:16.915Z,22.45
2022-10-05T18:14:57.995Z,22.46
2022-10-05T18:17:50.585Z,22.42
2022-10-05T18:20:32.500Z,22.45
2022-10-05T18:23:09.335Z,22.41
2022-10-05T18:25:55.891Z,22.41
2022-10-05T18:29:14.035Z,22.34
2022-10-05T18:32:01.046Z,22.40
2022-10-05T18:34:33.352Z,21.95
2022-10-05T18:37:09.318Z,21.86
2022-10-05T18:40:08.586Z,21.95
2022-10-05T18:43:07.063Z,21.76
2022-10-05T18:46:17.861Z,21.39
2022-10-05T18:49:02.991Z,21.48
2022-10-05T18:51:52.621Z,21.42
2022-10-05T18:54:35.497Z,21.48
2022-10-05T18:57:31.431Z,21.55
2022-10-05T19:00:04.298Z,21.49
2022-10-05T19:02:36.322Z,21.47
2022-10-05T19:05:45.852Z,21.38
2022-10-05T19:08:10.604Z,21.37
2022-10-05T19:10:42.555Z,21.34
2022-10-05T19:13:30.983Z,21.25
2022-10-05T19:16:17.931Z,21.11
2022-10-05T19:19:07.258Z,20.98
2022-10-05T19:21:59.017Z,20.80
2022-10-05T19:24:49.439Z,21.02
2022-10-05T19:27:45.184Z,20.57
2022-10-05T19:30:20.291Z,20.31
2022-10-05T19:32:55.091Z,20.39
2022-10-05T19:35:28.455Z,20.56
2022-10-05T19:38:20.553Z,20.30
2022-10-05T19:40:56.182Z,20.36
2022-10-05T19:44:02.576Z,20.51
2022-10-05T19:47:01.593Z,20.35
2022-10-05T19:49:58.928Z,20.35
2022-10-05T19:52:46.357Z,20.32
2022-10-05T19:55:26.107Z,20.33
2022-10-05T19:58:00.374Z,20.26
2022-10-05T20:00:32.162Z,20.30
2022-10-05T20:03:19.682Z,19.96
2022-10-05T20:05:46.245Z,20.08
2022-10-05T20:08:17.793Z,19.90
2022-10-05T20:10:45.706Z,19.62
2022-10-05T20:13:20.728Z,19.80
2022-10-05T20:16:48.253Z,19.84
2022-10-05T20:19:48.983Z,19.88
2022-10-05T20:22:34.889Z,19.98
2022-10-05T20:25:28.986Z,19.99
2022-10-05T20:27:56.477Z,19.99
2022-10-05T20:30:25.742Z,19.96
2022-10-05T20:32:57.437Z,19.90
2022-10-05T20:35:27.591Z,19.78
2022-10-05T20:37:54.484Z,19.82
2022-10-05T20:40:21.169Z,19.74
2022-10-05T20:42:47.857Z,19.87
2022-10-05T20:45:14.548Z,19.92
2022-10-05T20:47:42.105Z,20.03
2022-10-05T20:50:10.293Z,20.03
2022-10-05T20:52:37.397Z,19.97
2022-10-05T20:55:09.973Z,19.96
2022-10-05T20:57:41.440Z,19.92
2022-10-05T21:00:09.760Z,19.98
2022-10-05T21:02:37.077Z,19.94
2022-10-05T21:05:04.505Z,19.95
2022-10-05T21:07:31.079Z,19.85
2022-10-05T21:09:57.404Z,19.88
2022-10-05T21:12:23.742Z,19.89
2022-10-05T21:14:52.494Z,19.62
2022-10-05T21:17:20.075Z,19.64
2022-10-05T21:19:47.068Z,19.50
2022-10-05T21:22:13.423Z,19.30
2022-10-05T21:24:40.748Z,19.17
2022-10-05T21:27:07.982Z,19.19
2022-10-05T21:29:35.239Z,19.05
2022-10-05T21:32:01.733Z,18.74
2022-10-05T21:34:28.616Z,18.71
2022-10-05T21:36:54.970Z,18.48
2022-10-05T21:39:21.280Z,18.30
2022-10-05T21:41:49.603Z,18.17
2022-10-05T21:44:16.336Z,18.24
2022-10-05T21:46:42.686Z,18.38
2022-10-05T21:49:09.881Z,18.61
2022-10-05T21:51:38.352Z,18.66
2022-10-05T21:54:12.440Z,18.76
2022-10-05T21:56:43.627Z,18.88
2022-10-05T21:59:13.100Z,18.96
2022-10-05T22:01:39.601Z,19.09
2022-10-05T22:04:06.887Z,19.07
2022-10-05T22:06:35.026Z,19.08
2022-10-05T22:09:02.003Z,19.04
2022-10-05T22:11:28.934Z,19.08
2022-10-05T22:14:01.876Z,19.19
2022-10-05T22:16:31.624Z,19.15
2022-10-05T22:18:58.785Z,19.02
2022-10-05T22:21:25.153Z,19.06
2022-10-05T22:23:51.485Z,19.08
2022-10-05T22:26:21.107Z,19.09
2022-10-05T22:28:48.333Z,19.14
2022-10-05T22:31:15.469Z,18.80
2022-10-05T22:33:41.816Z,18.76
2022-10-05T22:36:09.500Z,18.79
2022-10-05T22:38:35.922Z,18.92
2022-10-05T22:41:02.293Z,18.81
2022-10-05T22:43:28.903Z,18.99
2022-10-05T22:45:55.887Z,19.06
2022-10-05T22:48:22.353Z,19.09
2022-10-05T22:50:49.139Z,19.14
2022-10-05T22:53:15.545Z,19.12
2022-10-05T22:55:41.830Z,19.09
2022-10-05T22:58:08.151Z,19.06
2022-10-05T23:00:56.545Z,19.09
2022-10-05T23:03:20.770Z,19.07
2022-10-05T23:05:47.085Z,18.95
2022-10-05T23:08:13.412Z,18.96
2022-10-05T23:10:39.700Z,18.98
2022-10-05T23:13:06.209Z,18.78
2022-10-05T23:15:33.678Z,18.72
2022-10-05T23:18:00.165Z,18.56
2022-10-05T23:20:26.793Z,18.66
2022-10-05T23:22:53.081Z,18.50
2022-10-05T23:25:19.609Z,18.32
2022-10-05T23:27:45.910Z,18.12
2022-10-05T23:30:12.742Z,17.53
2022-10-05T23:32:40.638Z,17.25
2022-10-05T23:35:08.846Z,16.81
2022-10-05T23:37:43.591Z,16.59
2022-10-05T23:40:12.961Z,16.42
2022-10-05T23:42:40.692Z,16.13
2022-10-05T23:45:11.288Z,16.24
2022-10-05T23:47:39.073Z,16.23
2022-10-05T23:50:06.932Z,15.94
2022-10-05T23:52:34.283Z,15.73
2022-10-05T23:55:01.028Z,15.77
2022-10-05T23:57:27.396Z,15.79
2022-10-05T23:59:56.054Z,15.75
